createdAt,value
2019-01-26T00:01:09.545Z,16.87
2019-01-26T00:03:42.312Z,16.73
2019-01-26T00:06:14.920Z,15.67
2019-01-26T00:08:47.720Z,17.27
2019-01-26T00:11:20.102Z,16.60
2019-01-26T00:13:52.628Z,16.43
2019-01-26T00:16:25.181Z,17.73
2019-01-26T00:18:59.427Z,23.83
2019-01-26T00:21:31.781Z,18.40
2019-01-26T00:24:04.855Z,16.60
2019-01-26T00:26:37.350Z,16.23
2019-01-26T00:29:09.919Z,16.00
2019-01-26T00:31:42.285Z,15.93
2019-01-26T00:34:15.200Z,17.73
2019-01-26T00:36:49.318Z,16.33
2019-01-26T00:39:21.889Z,15.80
2019-01-26T00:41:54.556Z,16.73
2019-01-26T00:44:26.999Z,16.03
2019-01-26T00:46:59.409Z,17.20
2019-01-26T00:49:31.955Z,16.80
2019-01-26T00:52:04.359Z,15.10
2019-01-26T00:54:36.960Z,16.93
2019-01-26T00:57:09.679Z,17.67
2019-01-26T00:59:42.022Z,16.00
2019-01-26T01:02:14.846Z,16.57
2019-01-26T01:04:47.157Z,16.00
2019-01-26T01:07:19.808Z,16.47
2019-01-26T01:09:53.320Z,16.60
2019-01-26T01:12:26.036Z,14.83
2019-01-26T01:14:58.414Z,15.47
2019-01-26T01:17:30.827Z,15.87
2019-01-26T01:20:03.348Z,15.73
2019-01-26T01:22:35.976Z,15.57
2019-01-26T01:25:09.153Z,15.23
2019-01-26T01:27:41.716Z,15.00
2019-01-26T01:30:18.436Z,15.07
2019-01-26T01:32:51.000Z,15.77
2019-01-26T01:35:23.352Z,14.77
2019-01-26T01:37:55.940Z,16.97
2019-01-26T01:40:28.385Z,15.10
2019-01-26T01:43:00.743Z,15.37
2019-01-26T01:45:33.582Z,15.33
2019-01-26T01:48:05.975Z,16.17
2019-01-26T01:50:38.328Z,16.40
2019-01-26T01:53:10.687Z,15.60
2019-01-26T01:55:44.774Z,14.90
2019-01-26T01:58:17.277Z,15.33
2019-01-26T02:00:49.657Z,14.83
2019-01-26T02:03:22.065Z,16.83
2019-01-26T02:05:54.551Z,15.33
2019-01-26T02:08:26.901Z,15.30
2019-01-26T02:10:59.246Z,16.60
2019-01-26T02:13:31.663Z,14.90
2019-01-26T02:16:04.687Z,15.03
2019-01-26T02:18:38.113Z,14.60
2019-01-26T02:21:11.184Z,13.50
2019-01-26T02:23:43.510Z,14.13
2019-01-26T02:26:15.857Z,14.43
2019-01-26T02:28:48.527Z,14.47
2019-01-26T02:31:20.902Z,14.60
2019-01-26T02:33:53.551Z,13.23
2019-01-26T02:36:26.124Z,13.63
2019-01-26T02:38:58.649Z,14.20
2019-01-26T02:41:31.135Z,13.70
2019-01-26T02:44:03.757Z,15.10
2019-01-26T02:46:36.035Z,13.33
2019-01-26T02:49:08.435Z,14.13
2019-01-26T02:51:40.857Z,14.10
2019-01-26T02:54:13.397Z,13.90
2019-01-26T02:56:45.893Z,13.30
2019-01-26T02:59:18.238Z,13.00
2019-01-26T03:01:50.589Z,13.30
2019-01-26T03:04:22.983Z,13.10
2019-01-26T03:06:55.422Z,13.13
2019-01-26T03:09:27.923Z,12.00
2019-01-26T03:12:00.520Z,12.70
2019-01-26T03:14:33.208Z,13.57
2019-01-26T03:17:06.559Z,13.00
2019-01-26T03:19:38.956Z,12.97
2019-01-26T03:22:11.515Z,13.43
2019-01-26T03:24:43.921Z,13.40
2019-01-26T03:27:16.493Z,12.00
2019-01-26T03:29:48.883Z,13.80
2019-01-26T03:32:21.428Z,12.90
2019-01-26T03:34:53.789Z,13.63
2019-01-26T03:37:26.426Z,14.13
2019-01-26T03:39:58.898Z,12.70
2019-01-26T03:42:31.543Z,14.00
2019-01-26T03:45:04.270Z,12.90
2019-01-26T03:47:36.727Z,12.93
2019-01-26T03:50:10.923Z,13.33
2019-01-26T03:52:43.216Z,12.63
2019-01-26T03:55:18.061Z,14.27
2019-01-26T03:57:50.930Z,13.20
2019-01-26T04:00:26.423Z,13.53
2019-01-26T04:02:58.959Z,14.70
2019-01-26T04:05:31.455Z,15.30
2019-01-26T04:08:04.134Z,15.00
2019-01-26T04:10:36.438Z,16.00
2019-01-26T04:13:09.127Z,13.70
2019-01-26T04:15:52.619Z,13.20
2019-01-26T04:18:25.250Z,13.83
2019-01-26T04:20:58.036Z,13.90
2019-01-26T04:23:30.501Z,14.10
2019-01-26T04:26:03.103Z,12.93
2019-01-26T04:28:35.609Z,14.20
2019-01-26T04:31:07.981Z,14.53
2019-01-26T04:33:40.376Z,13.90
2019-01-26T04:36:12.834Z,13.33
2019-01-26T04:38:45.159Z,13.40
2019-01-26T04:41:17.551Z,12.53
2019-01-26T04:43:50.182Z,11.80
2019-01-26T04:46:22.485Z,12.40
2019-01-26T04:48:55.031Z,13.23
2019-01-26T04:51:27.548Z,12.67
2019-01-26T04:53:59.842Z,12.97
2019-01-26T04:56:32.279Z,13.40
2019-01-26T04:59:04.727Z,13.03
2019-01-26T05:01:37.238Z,11.97
2019-01-26T05:04:09.770Z,13.17
2019-01-26T05:06:42.316Z,13.43
2019-01-26T05:09:14.707Z,13.83
2019-01-26T05:11:47.268Z,13.53
2019-01-26T05:14:19.845Z,14.43
2019-01-26T05:16:51.813Z,13.00
2019-01-26T05:19:24.866Z,13.90
2019-01-26T05:21:57.374Z,13.53
2019-01-26T05:24:29.948Z,13.40
2019-01-26T05:27:02.663Z,14.63
2019-01-26T05:29:35.180Z,15.37
2019-01-26T05:32:07.884Z,15.07
2019-01-26T05:34:40.449Z,14.13
2019-01-26T05:37:13.009Z,14.13
2019-01-26T05:39:45.314Z,13.57
2019-01-26T05:42:17.786Z,14.50
2019-01-26T05:44:50.295Z,14.57
2019-01-26T05:47:22.800Z,14.00
2019-01-26T05:49:55.395Z,14.07
2019-01-26T05:52:27.850Z,15.07
2019-01-26T05:55:00.270Z,12.27
2019-01-26T05:57:32.878Z,12.47
2019-01-26T06:00:06.368Z,11.97
2019-01-26T06:02:38.970Z,10.37
2019-01-26T06:05:11.664Z,11.20
2019-01-26T06:07:44.141Z,13.13
2019-01-26T06:10:17.013Z,16.03
2019-01-26T06:12:49.686Z,11.10
2019-01-26T06:15:22.344Z,15.30
2019-01-26T06:17:55.463Z,11.13
2019-01-26T06:20:28.072Z,11.03
2019-01-26T06:23:00.414Z,14.67
2019-01-26T06:25:33.067Z,14.17
2019-01-26T06:28:05.581Z,11.33
2019-01-26T06:30:37.833Z,11.43
2019-01-26T06:33:10.502Z,11.90
2019-01-26T06:35:42.873Z,11.33
2019-01-26T06:38:15.249Z,10.90
2019-01-26T06:40:47.847Z,10.10
2019-01-26T06:43:20.482Z,10.77
2019-01-26T06:45:53.028Z,11.17
2019-01-26T06:48:25.409Z,10.37
2019-01-26T06:50:59.103Z,11.50
2019-01-26T06:53:31.711Z,11.70
2019-01-26T06:56:04.359Z,9.97
2019-01-26T06:58:36.880Z,10.73
2019-01-26T07:01:10.597Z,9.83
2019-01-26T07:03:43.119Z,11.67
2019-01-26T07:06:33.028Z,12.23
2019-01-26T07:09:08.526Z,10.53
2019-01-26T07:11:41.244Z,10.00
2019-01-26T07:14:13.579Z,9.83
2019-01-26T07:16:45.858Z,11.73
2019-01-26T07:19:18.301Z,10.57
2019-01-26T07:21:50.627Z,10.10
2019-01-26T07:24:24.845Z,9.50
2019-01-26T07:26:57.536Z,11.20
2019-01-26T07:29:30.179Z,29.97
2019-01-26T07:32:02.652Z,11.60
2019-01-26T07:34:34.883Z,10.00
2019-01-26T07:37:07.416Z,9.40
2019-01-26T07:39:39.731Z,8.73
2019-01-26T07:42:12.215Z,9.00
2019-01-26T07:44:44.521Z,9.10
2019-01-26T07:47:17.081Z,8.70
2019-01-26T07:49:50.702Z,9.83
2019-01-26T07:52:23.529Z,9.17
2019-01-26T07:54:55.844Z,8.50
2019-01-26T07:57:28.125Z,9.17
2019-01-26T08:00:00.524Z,9.33
2019-01-26T08:02:33.126Z,9.10
2019-01-26T08:05:07.007Z,9.73
2019-01-26T08:07:39.345Z,8.30
2019-01-26T08:10:16.173Z,8.53
2019-01-26T08:12:49.240Z,7.87
2019-01-26T08:15:34.379Z,8.17
2019-01-26T08:18:08.510Z,8.10
2019-01-26T08:20:41.102Z,8.13
2019-01-26T08:23:14.018Z,15.90
2019-01-26T08:25:46.255Z,9.17
2019-01-26T08:28:18.846Z,11.40
2019-01-26T08:30:51.071Z,8.30
2019-01-26T08:33:23.595Z,10.17
2019-01-26T08:35:56.006Z,16.07
2019-01-26T08:38:29.772Z,9.23
2019-01-26T08:41:02.119Z,8.60
2019-01-26T08:43:34.893Z,7.83
2019-01-26T08:46:07.428Z,7.43
2019-01-26T08:48:39.808Z,7.33
2019-01-26T08:51:12.077Z,8.13
2019-01-26T08:53:44.543Z,8.53
2019-01-26T08:56:18.330Z,7.83
2019-01-26T08:58:50.557Z,7.67
2019-01-26T09:01:23.111Z,8.67
2019-01-26T09:04:11.773Z,7.10
2019-01-26T09:06:46.879Z,7.50
2019-01-26T09:09:19.176Z,6.50
2019-01-26T09:11:51.677Z,6.87
2019-01-26T09:14:24.228Z,6.33
2019-01-26T09:16:56.728Z,7.33
2019-01-26T09:19:29.267Z,6.07
2019-01-26T09:22:01.793Z,6.10
2019-01-26T09:24:34.151Z,5.43
2019-01-26T09:27:06.915Z,4.97
2019-01-26T09:29:39.338Z,6.20
2019-01-26T09:32:13.436Z,5.00
2019-01-26T09:34:45.763Z,5.03
2019-01-26T09:37:18.885Z,5.33
2019-01-26T09:39:51.224Z,5.70
2019-01-26T09:42:23.602Z,4.40
2019-01-26T09:44:56.179Z,7.63
2019-01-26T09:47:28.646Z,6.10
2019-01-26T09:50:01.018Z,5.03
2019-01-26T09:52:33.496Z,5.10
2019-01-26T09:55:06.786Z,5.60
2019-01-26T09:57:39.322Z,5.20
2019-01-26T10:00:16.167Z,5.30
2019-01-26T10:02:48.740Z,4.90
2019-01-26T10:05:21.235Z,5.27
2019-01-26T10:07:54.471Z,5.40
2019-01-26T10:10:27.081Z,4.93
2019-01-26T10:12:59.522Z,7.27
2019-01-26T10:15:32.580Z,4.80
2019-01-26T10:18:05.456Z,5.67
2019-01-26T10:20:39.114Z,5.57
2019-01-26T10:23:11.675Z,5.47
2019-01-26T10:25:48.610Z,5.67
2019-01-26T10:28:17.865Z,4.27
2019-01-26T10:30:52.955Z,5.80
2019-01-26T10:33:25.922Z,4.80
2019-01-26T10:36:17.063Z,4.67
2019-01-26T10:38:58.170Z,5.20
2019-01-26T10:41:45.429Z,4.97
2019-01-26T10:44:31.546Z,4.63
2019-01-26T10:47:04.313Z,5.33
2019-01-26T10:49:36.816Z,8.43
2019-01-26T10:52:09.566Z,9.17
2019-01-26T10:54:43.639Z,10.77
2019-01-26T10:57:16.188Z,12.60
2019-01-26T10:59:48.792Z,12.33
2019-01-26T11:02:21.215Z,13.70
2019-01-26T11:04:53.601Z,14.63
2019-01-26T11:07:26.335Z,14.83
2019-01-26T11:10:00.634Z,13.87
2019-01-26T11:12:33.353Z,14.27
2019-01-26T11:15:06.281Z,15.17
2019-01-26T11:17:38.745Z,14.40
2019-01-26T11:20:12.226Z,15.67
2019-01-26T11:22:44.940Z,14.27
2019-01-26T11:25:17.508Z,15.10
2019-01-26T11:27:50.038Z,14.90
2019-01-26T11:30:24.143Z,15.40
2019-01-26T11:32:56.485Z,15.07
2019-01-26T11:35:29.070Z,14.70
2019-01-26T11:38:01.459Z,16.10
2019-01-26T11:40:34.385Z,16.47
2019-01-26T11:43:06.967Z,15.27
2019-01-26T11:45:56.749Z,16.20
2019-01-26T11:48:32.175Z,14.97
2019-01-26T11:51:26.605Z,15.73
2019-01-26T11:53:59.026Z,16.27
2019-01-26T11:56:56.101Z,15.27
2019-01-26T11:59:28.508Z,16.20
2019-01-26T12:02:19.693Z,16.07
2019-01-26T12:05:14.214Z,15.77
2019-01-26T12:07:46.621Z,17.17
2019-01-26T12:10:18.944Z,17.50
2019-01-26T12:12:51.520Z,17.10
2019-01-26T12:15:24.054Z,16.77
2019-01-26T12:17:56.574Z,17.80
2019-01-26T12:20:29.264Z,17.67
2019-01-26T12:23:02.012Z,18.20
2019-01-26T12:25:34.700Z,18.67
2019-01-26T12:28:07.258Z,18.97
2019-01-26T12:30:39.899Z,20.70
2019-01-26T12:33:12.528Z,38.73
2019-01-26T12:35:45.315Z,44.03
2019-01-26T12:38:17.900Z,19.33
2019-01-26T12:40:50.250Z,19.40
2019-01-26T12:43:22.836Z,20.27
2019-01-26T12:45:55.461Z,20.03
2019-01-26T12:48:27.956Z,18.40
2019-01-26T12:51:00.352Z,19.97
2019-01-26T12:53:32.668Z,20.97
2019-01-26T12:56:05.827Z,20.27
2019-01-26T12:58:38.305Z,19.97
2019-01-26T13:01:11.165Z,19.20
2019-01-26T13:03:43.642Z,20.20
2019-01-26T13:06:16.121Z,19.70
2019-01-26T13:08:48.456Z,20.47
2019-01-26T13:11:27.339Z,19.33
2019-01-26T13:13:59.862Z,19.43
2019-01-26T13:16:32.503Z,19.97
2019-01-26T13:19:05.534Z,21.30
2019-01-26T13:21:38.188Z,21.30
2019-01-26T13:24:10.992Z,20.60
2019-01-26T13:26:43.544Z,20.27
2019-01-26T13:29:16.382Z,21.63
2019-01-26T13:31:48.789Z,19.93
2019-01-26T13:34:21.369Z,20.80
2019-01-26T13:36:53.993Z,20.03
2019-01-26T13:39:26.574Z,20.03
2019-01-26T13:41:59.304Z,22.07
2019-01-26T13:44:31.657Z,20.60
2019-01-26T13:47:04.097Z,19.83
2019-01-26T13:49:36.800Z,20.70
2019-01-26T13:52:09.248Z,19.80
2019-01-26T13:54:41.681Z,21.27
2019-01-26T13:57:14.482Z,57.10
2019-01-26T13:59:46.880Z,22.13
2019-01-26T14:02:19.248Z,20.70
2019-01-26T14:04:51.901Z,21.03
2019-01-26T14:07:24.542Z,21.47
2019-01-26T14:09:57.019Z,20.87
2019-01-26T14:12:29.411Z,21.23
2019-01-26T14:15:01.859Z,21.10
2019-01-26T14:17:34.623Z,21.17
2019-01-26T14:20:10.199Z,22.17
2019-01-26T14:22:42.646Z,22.53
2019-01-26T14:25:15.544Z,22.77
2019-01-26T14:27:48.233Z,22.07
2019-01-26T14:30:39.720Z,22.17
2019-01-26T14:33:12.286Z,21.20
2019-01-26T14:35:44.718Z,22.83
2019-01-26T14:38:17.615Z,21.63
2019-01-26T14:40:50.028Z,23.67
2019-01-26T14:43:22.587Z,21.17
2019-01-26T14:45:55.014Z,24.33
2019-01-26T14:48:27.495Z,22.83
2019-01-26T14:50:59.954Z,22.83
2019-01-26T14:53:33.145Z,22.67
2019-01-26T14:56:07.614Z,22.00
2019-01-26T14:58:40.244Z,21.87
2019-01-26T15:01:12.619Z,42.37
2019-01-26T15:03:45.034Z,28.27
2019-01-26T15:06:17.605Z,23.93
2019-01-26T15:08:50.254Z,23.73
2019-01-26T15:11:23.751Z,23.60
2019-01-26T15:13:56.225Z,24.20
2019-01-26T15:16:28.589Z,25.30
2019-01-26T15:19:01.013Z,24.47
2019-01-26T15:21:33.665Z,24.67
2019-01-26T15:24:06.359Z,24.83
2019-01-26T15:26:38.973Z,26.03
2019-01-26T15:29:11.618Z,23.10
2019-01-26T15:31:44.024Z,24.47
2019-01-26T15:34:16.810Z,24.03
2019-01-26T15:36:49.178Z,26.83
2019-01-26T15:39:21.851Z,24.70
2019-01-26T15:41:54.399Z,25.90
2019-01-26T15:44:26.951Z,26.60
2019-01-26T15:46:59.515Z,27.07
2019-01-26T15:49:32.398Z,25.80
2019-01-26T15:52:05.267Z,25.47
2019-01-26T15:54:37.782Z,26.07
2019-01-26T15:57:10.324Z,25.97
2019-01-26T15:59:42.717Z,26.27
2019-01-26T16:02:15.432Z,25.90
2019-01-26T16:04:48.215Z,29.27
2019-01-26T16:07:20.690Z,30.13
2019-01-26T16:09:53.392Z,28.77
2019-01-26T16:12:26.067Z,26.83
2019-01-26T16:14:58.362Z,27.07
2019-01-26T16:17:31.192Z,26.20
2019-01-26T16:20:06.057Z,25.50
2019-01-26T16:22:38.554Z,26.57
2019-01-26T16:25:11.843Z,27.43
2019-01-26T16:27:44.555Z,27.93
2019-01-26T16:30:20.601Z,26.73
2019-01-26T16:32:53.238Z,26.93
2019-01-26T16:35:27.569Z,27.47
2019-01-26T16:38:00.082Z,26.37
2019-01-26T16:40:34.843Z,90.37
2019-01-26T16:43:07.417Z,28.87
2019-01-26T16:45:41.450Z,28.70
2019-01-26T16:48:16.461Z,31.63
2019-01-26T16:50:48.869Z,28.10
2019-01-26T16:53:21.581Z,26.67
2019-01-26T16:55:54.069Z,27.73
2019-01-26T16:58:26.569Z,28.90
2019-01-26T17:01:01.599Z,28.13
2019-01-26T17:03:34.010Z,27.27
2019-01-26T17:06:08.262Z,29.80
2019-01-26T17:08:41.083Z,27.47
2019-01-26T17:11:13.424Z,29.27
2019-01-26T17:13:45.889Z,30.73
2019-01-26T17:16:18.328Z,34.07
2019-01-26T17:18:51.001Z,30.83
2019-01-26T17:21:23.864Z,32.97
2019-01-26T17:23:56.390Z,30.70
2019-01-26T17:26:28.707Z,30.90
2019-01-26T17:29:01.352Z,37.87
2019-01-26T17:31:33.825Z,48.07
2019-01-26T17:34:06.912Z,44.83
2019-01-26T17:36:39.546Z,51.33
2019-01-26T17:39:12.100Z,51.90
2019-01-26T17:41:44.476Z,42.63
2019-01-26T17:44:16.995Z,47.67
2019-01-26T17:46:49.546Z,55.77
2019-01-26T17:49:22.201Z,54.07
2019-01-26T17:51:54.913Z,67.30
2019-01-26T17:54:27.689Z,62.17
2019-01-26T17:57:01.126Z,53.70
2019-01-26T17:59:33.838Z,58.40
2019-01-26T18:02:06.484Z,56.53
2019-01-26T18:04:39.028Z,33.97
2019-01-26T18:07:11.327Z,32.93
2019-01-26T18:09:43.723Z,32.37
2019-01-26T18:12:16.303Z,28.80
2019-01-26T18:14:48.814Z,36.37
2019-01-26T18:17:21.283Z,29.53
2019-01-26T18:19:53.887Z,29.07
2019-01-26T18:22:26.969Z,29.83
2019-01-26T18:24:59.616Z,27.13
2019-01-26T18:27:32.053Z,31.63
2019-01-26T18:30:04.969Z,28.17
2019-01-26T18:32:39.472Z,29.97
2019-01-26T18:35:13.644Z,30.33
2019-01-26T18:37:46.666Z,30.20
2019-01-26T18:40:22.827Z,32.57
2019-01-26T18:42:57.199Z,31.33
2019-01-26T18:45:29.781Z,42.17
2019-01-26T18:48:02.354Z,52.10
2019-01-26T18:50:37.305Z,41.67
2019-01-26T18:53:09.945Z,48.10
2019-01-26T18:55:42.432Z,55.07
2019-01-26T18:58:14.915Z,50.27
2019-01-26T19:00:50.753Z,41.20
2019-01-26T19:04:12.338Z,43.50
2019-01-26T19:06:44.751Z,55.13
2019-01-26T19:09:17.406Z,40.17
2019-01-26T19:11:49.791Z,31.50
2019-01-26T19:14:22.159Z,29.07
2019-01-26T19:16:54.696Z,30.23
2019-01-26T19:19:27.102Z,28.73
2019-01-26T19:21:59.495Z,30.27
2019-01-26T19:24:32.036Z,34.03
2019-01-26T19:27:05.020Z,38.47
2019-01-26T19:29:37.479Z,38.73
2019-01-26T19:32:09.997Z,33.67
2019-01-26T19:34:42.501Z,31.33
2019-01-26T19:37:15.702Z,30.87
2019-01-26T19:39:49.171Z,30.80
2019-01-26T19:42:21.549Z,30.47
2019-01-26T19:44:54.136Z,33.33
2019-01-26T19:47:26.619Z,32.63
2019-01-26T19:49:59.100Z,30.97
2019-01-26T19:52:31.629Z,91.77
2019-01-26T19:55:04.687Z,34.97
2019-01-26T19:57:37.525Z,34.27
2019-01-26T20:00:10.423Z,32.83
2019-01-26T20:02:42.962Z,34.07
2019-01-26T20:05:18.694Z,34.20
2019-01-26T20:07:51.651Z,34.43
2019-01-26T20:10:24.522Z,32.90
2019-01-26T20:12:57.197Z,32.47
2019-01-26T20:15:29.585Z,35.87
2019-01-26T20:18:02.149Z,34.30
2019-01-26T20:20:35.882Z,34.30
2019-01-26T20:23:08.257Z,37.83
2019-01-26T20:25:40.670Z,40.50
2019-01-26T20:28:13.277Z,31.90
2019-01-26T20:30:46.164Z,32.40
2019-01-26T20:33:18.954Z,31.97
2019-01-26T20:35:51.719Z,32.30
2019-01-26T20:38:24.295Z,32.13
2019-01-26T20:40:58.526Z,31.57
2019-01-26T20:43:30.921Z,91.70
2019-01-26T20:46:03.569Z,64.73
2019-01-26T20:48:35.958Z,63.43
2019-01-26T20:51:08.442Z,31.73
2019-01-26T20:53:41.212Z,69.63
2019-01-26T20:56:13.778Z,40.17
2019-01-26T20:58:46.164Z,32.13
2019-01-26T21:01:18.668Z,71.67
2019-01-26T21:03:51.096Z,58.20
2019-01-26T21:06:23.399Z,32.33
2019-01-26T21:08:55.956Z,61.53
2019-01-26T21:11:28.221Z,64.77
2019-01-26T21:14:00.689Z,32.83
2019-01-26T21:16:33.472Z,30.70
2019-01-26T21:19:06.199Z,78.23
2019-01-26T21:21:38.641Z,67.30
2019-01-26T21:24:11.439Z,36.57
2019-01-26T21:26:44.058Z,31.73
2019-01-26T21:29:16.647Z,75.90
2019-01-26T21:31:49.140Z,54.53
2019-01-26T21:34:21.849Z,31.63
2019-01-26T21:36:55.215Z,30.30
2019-01-26T21:39:27.975Z,30.23
2019-01-26T21:42:00.491Z,51.33
2019-01-26T21:44:33.822Z,38.00
2019-01-26T21:47:06.794Z,31.10
2019-01-26T21:49:39.553Z,31.13
2019-01-26T21:52:12.161Z,32.20
2019-01-26T21:54:44.666Z,31.97
2019-01-26T21:57:17.306Z,37.73
2019-01-26T21:59:49.919Z,36.47
2019-01-26T22:02:22.546Z,38.37
2019-01-26T22:04:55.243Z,35.90
2019-01-26T22:07:27.733Z,35.60
2019-01-26T22:10:00.363Z,35.73
2019-01-26T22:12:32.734Z,34.10
2019-01-26T22:15:06.134Z,32.33
2019-01-26T22:17:38.559Z,32.67
2019-01-26T22:20:18.287Z,33.20
2019-01-26T22:22:51.483Z,32.00
2019-01-26T22:25:24.213Z,44.60
2019-01-26T22:27:58.456Z,41.37
2019-01-26T22:30:33.702Z,36.27
2019-01-26T22:33:06.295Z,33.27
2019-01-26T22:35:38.775Z,37.20
2019-01-26T22:38:11.362Z,56.23
2019-01-26T22:40:43.826Z,41.03
2019-01-26T22:43:16.500Z,33.27
2019-01-26T22:45:49.324Z,31.20
2019-01-26T22:48:22.166Z,50.63
2019-01-26T22:50:54.849Z,32.23
2019-01-26T22:53:27.469Z,31.73
2019-01-26T22:56:00.492Z,31.20
2019-01-26T22:58:33.008Z,36.00
2019-01-26T23:01:27.147Z,34.20
2019-01-26T23:04:49.615Z,33.07
2019-01-26T23:07:44.722Z,32.57
2019-01-26T23:11:28.975Z,63.57
2019-01-26T23:14:37.094Z,37.43
2019-01-26T23:17:31.339Z,33.67
2019-01-26T23:20:56.533Z,31.80
2019-01-26T23:24:26.782Z,37.70
2019-01-26T23:27:55.825Z,37.37
2019-01-26T23:31:21.081Z,35.80
2019-01-26T23:33:57.245Z,35.17
2019-01-26T23:36:29.620Z,44.80
2019-01-26T23:39:02.744Z,41.57
2019-01-26T23:41:35.097Z,45.53
2019-01-26T23:44:07.607Z,48.37
2019-01-26T23:46:39.938Z,48.23
2019-01-26T23:49:12.325Z,46.57
2019-01-26T23:51:44.845Z,43.30
2019-01-26T23:54:17.312Z,42.67
2019-01-26T23:56:50.830Z,40.63
2019-01-26T23:59:23.220Z,39.43
